Time;durP1;ratioP1;P1;durP2;ratioP2;P2;SDS_P1;SDS_P2;PMS_P1;PMS_P2;Temp;Humidity;BMP_temperature;BMP_pressure;BME280_temperature;BME280_humidity;BME280_pressure;Samples;Min_cycle;Max_cycle;Signal;HPM_P1;HPM_P2
2021/12/08 00:00:42;;;;;;;4.35;1.67;;;;;;;9.10;49.59;99092.69;5034471;28;20047;-71
2021/12/08 00:03:11;;;;;;;3.90;1.25;;;;;;;9.10;49.61;99080.03;5015787;28;20045;-71
2021/12/08 00:05:39;;;;;;;4.40;1.50;;;;;;;9.12;49.51;99078.03;5039280;28;20045;-72
2021/12/08 00:08:07;;;;;;;3.78;1.60;;;;;;;9.13;49.59;99076.19;5009917;28;20048;-72
2021/12/08 00:13:07;;;;;;;3.15;1.50;;;;;;;9.18;49.26;99065.78;5041138;28;20141;-71
2021/12/08 00:15:38;;;;;;;4.68;1.65;;;;;;;9.18;49.31;99082.03;5001955;28;20049;-71
2021/12/08 00:18:13;;;;;;;3.80;1.50;;;;;;;9.21;49.49;99086.34;4994584;28;20455;-71
2021/12/08 00:20:41;;;;;;;6.35;1.58;;;;;;;9.21;49.68;99078.22;5052763;28;20045;-71
2021/12/08 00:23:08;;;;;;;3.20;1.42;;;;;;;9.22;49.60;99078.09;5038996;28;20052;-71
2021/12/08 00:25:36;;;;;;;3.78;1.40;;;;;;;9.23;49.71;99074.34;5057553;28;20124;-72
2021/12/08 00:28:05;;;;;;;2.63;1.30;;;;;;;9.25;49.72;99061.53;5060268;28;20041;-71
2021/12/08 00:30:33;;;;;;;5.00;1.50;;;;;;;9.26;49.58;99059.69;5028194;28;20049;-72
2021/12/08 00:33:00;;;;;;;1.83;1.20;;;;;;;9.26;49.70;99065.09;5065608;28;20052;-71
2021/12/08 00:35:28;;;;;;;2.67;1.20;;;;;;;9.27;49.78;99072.25;5062660;28;20040;-71
2021/12/08 00:37:55;;;;;;;3.45;1.50;;;;;;;9.26;49.76;99056.97;5051831;28;20052;-72
2021/12/08 00:40:22;;;;;;;3.35;1.27;;;;;;;9.26;50.05;99071.38;5028625;28;20132;-70
2021/12/08 00:42:49;;;;;;;3.42;1.42;;;;;;;9.27;50.02;99058.69;5031179;28;20521;-72
2021/12/08 00:45:18;;;;;;;2.70;1.30;;;;;;;9.26;49.90;99071.38;5044593;28;20464;-73
2021/12/08 00:47:46;;;;;;;5.05;1.50;;;;;;;9.27;50.13;99047.88;5062146;28;20045;-72
2021/12/08 00:50:15;;;;;;;3.45;1.30;;;;;;;9.26;49.93;99059.69;5058999;28;20148;-71
2021/12/08 00:52:42;;;;;;;2.75;1.25;;;;;;;9.25;49.84;99017.34;5052878;28;20076;-72
2021/12/08 00:55:13;;;;;;;5.85;2.40;;;;;;;9.25;50.15;99047.13;5036643;28;20515;-71
2021/12/08 00:57:39;;;;;;;3.40;1.60;;;;;;;9.24;50.08;99059.81;5051774;28;20211;-72
2021/12/08 01:00:11;;;;;;;3.88;1.38;;;;;;;9.25;50.32;99068.81;5050130;28;20140;-71
2021/12/08 01:02:39;;;;;;;3.40;1.40;;;;;;;9.21;50.50;99073.66;5046082;28;20490;-71
2021/12/08 01:05:09;;;;;;;4.50;1.70;;;;;;;9.25;50.28;99077.78;5053275;28;20052;-71
2021/12/08 01:07:36;;;;;;;2.92;1.60;;;;;;;9.23;50.39;99062.66;5048864;28;20053;-70
2021/12/08 01:10:09;;;;;;;3.83;1.40;;;;;;;9.24;50.60;99067.94;5048672;28;20040;-71
2021/12/08 01:12:56;;;;;;;4.95;1.60;;;;;;;9.22;50.55;99077.22;5056833;28;20480;-72
2021/12/08 01:15:25;;;;;;;3.10;1.20;;;;;;;9.25;50.71;99076.94;5051804;28;20051;-71
2021/12/08 01:17:53;;;;;;;3.30;1.33;;;;;;;9.26;50.47;99082.22;5048576;28;21603;-73
2021/12/08 01:20:20;;;;;;;2.83;1.30;;;;;;;9.28;50.58;99082.06;5058985;28;20051;-71
2021/12/08 01:22:47;;;;;;;3.17;1.30;;;;;;;9.29;50.70;99078.38;5063981;28;20131;-71
2021/12/08 01:25:14;;;;;;;3.72;1.50;;;;;;;9.30;50.78;99069.25;5036411;28;20081;-73
2021/12/08 01:27:41;;;;;;;2.53;1.67;;;;;;;9.32;50.77;99069.97;5055299;28;20056;-72
2021/12/08 01:30:08;;;;;;;3.28;1.50;;;;;;;9.33;50.75;99061.69;5032057;28;20132;-71
2021/12/08 01:32:35;;;;;;;4.47;1.40;;;;;;;9.35;50.68;99061.56;5058823;28;20080;-73
2021/12/08 01:35:04;;;;;;;2.67;1.40;;;;;;;9.37;50.76;99079.41;5063277;28;20127;-71
2021/12/08 01:37:32;;;;;;;2.67;1.50;;;;;;;9.38;50.57;99075.72;5062789;28;20558;-73
2021/12/08 01:39:59;;;;;;;3.92;1.63;;;;;;;9.38;50.73;99066.72;5048036;28;20120;-72
2021/12/08 01:42:34;;;;;;;3.53;1.40;;;;;;;9.40;50.73;99054.72;5046921;28;20049;-71
2021/12/08 01:47:48;;;;;;;3.53;1.42;;;;;;;9.40;50.86;99059.28;5050597;28;20041;-72
2021/12/08 01:50:15;;;;;;;3.38;1.42;;;;;;;9.42;50.90;99074.41;5044501;28;20127;-71
2021/12/08 01:52:41;;;;;;;2.92;1.27;;;;;;;9.44;50.74;99077.84;5047848;28;20532;-72
2021/12/08 01:55:10;;;;;;;3.95;1.50;;;;;;;9.45;50.73;99068.72;5014179;28;20076;-72
2021/12/08 01:57:42;;;;;;;4.50;1.55;;;;;;;9.44;50.78;99069.72;5031823;28;20052;-71
2021/12/08 02:00:15;;;;;;;4.80;1.80;;;;;;;9.46;50.84;99075.00;5032688;28;20492;-71
2021/12/08 02:02:43;;;;;;;4.43;1.75;;;;;;;9.46;50.88;99070.44;5060312;28;20152;-73
2021/12/08 02:05:09;;;;;;;4.55;1.70;;;;;;;9.48;50.71;99083.81;5033380;28;20132;-71
2021/12/08 02:07:36;;;;;;;2.35;1.45;;;;;;;9.48;50.66;99064.88;5057250;28;20171;-71
2021/12/08 02:10:05;;;;;;;3.67;1.80;;;;;;;9.50;50.88;99079.13;5048862;28;20659;-72
2021/12/08 02:12:35;;;;;;;3.47;1.98;;;;;;;9.48;50.94;99076.56;5059108;28;20055;-71
2021/12/08 02:15:04;;;;;;;3.65;1.45;;;;;;;9.51;50.95;99075.44;5049682;28;20072;-72
2021/12/08 02:17:30;;;;;;;3.45;1.70;;;;;;;9.50;50.72;99077.28;5055296;28;20070;-72
2021/12/08 02:19:57;;;;;;;3.78;1.83;;;;;;;9.50;50.87;99071.88;5050189;28;20068;-72
2021/12/08 02:22:24;;;;;;;3.95;1.80;;;;;;;9.53;51.09;99078.88;5045768;28;20049;-71
2021/12/08 02:24:50;;;;;;;3.78;1.40;;;;;;;9.54;50.97;99080.59;5051783;28;20136;-71
2021/12/08 02:27:17;;;;;;;3.13;1.63;;;;;;;9.55;50.75;99074.19;5044180;28;20132;-74
2021/12/08 02:29:51;;;;;;;3.47;1.52;;;;;;;9.55;51.10;99088.56;5029610;28;20502;-71
2021/12/08 02:48:38;;;;;;;2.45;1.35;;;;;;;9.55;51.00;99099.38;5048144;28;20046;-72
2021/12/08 02:51:04;;;;;;;1.98;1.20;;;;;;;9.57;51.04;99093.84;5026716;28;20128;-72
2021/12/08 02:53:32;;;;;;;2.67;1.30;;;;;;;9.58;51.02;99092.84;5048133;28;20064;-71
2021/12/08 02:55:59;;;;;;;3.33;1.30;;;;;;;9.58;51.29;99097.41;5056878;28;20132;-74
2021/12/08 02:58:26;;;;;;;2.15;1.30;;;;;;;9.60;51.20;99111.69;5052746;28;20479;-72
2021/12/08 03:00:58;;;;;;;2.00;1.10;;;;;;;9.64;51.21;99121.22;5061943;28;20477;-73
2021/12/08 03:03:26;;;;;;;3.08;1.30;;;;;;;9.63;51.23;99109.56;5059109;28;20770;-72
2021/12/08 03:05:52;;;;;;;3.33;1.20;;;;;;;9.64;51.25;99111.25;5043449;28;20123;-71
2021/12/08 03:08:19;;;;;;;3.30;1.40;;;;;;;9.67;51.26;99120.97;5043378;28;20123;-72
2021/12/08 03:10:50;;;;;;;1.67;1.10;;;;;;;9.67;51.24;99124.53;5046217;28;20052;-73
2021/12/08 03:13:17;;;;;;;3.35;1.30;;;;;;;9.68;51.17;99111.84;5060214;28;20040;-73
2021/12/08 03:15:43;;;;;;;2.22;1.30;;;;;;;9.70;51.16;99126.09;5053879;28;20068;-72
2021/12/08 03:18:11;;;;;;;2.30;1.30;;;;;;;9.70;51.28;99118.84;5049995;28;20520;-71
2021/12/08 03:20:40;;;;;;;2.20;1.08;;;;;;;9.72;51.29;99124.94;5058600;28;20044;-72
2021/12/08 03:23:38;;;;;;;2.83;1.33;;;;;;;9.72;51.31;99122.25;5049518;28;20482;-71
2021/12/08 03:26:06;;;;;;;2.95;1.30;;;;;;;9.72;51.34;99114.13;5060681;28;20068;-73
2021/12/08 03:28:39;;;;;;;2.28;1.30;;;;;;;9.74;51.44;99114.84;5039088;28;20077;-73
2021/12/08 03:31:14;;;;;;;2.33;1.70;;;;;;;9.75;51.32;99124.69;5059825;28;20045;-72
2021/12/08 03:33:43;;;;;;;2.92;1.33;;;;;;;9.75;51.27;99130.09;5057466;28;20127;-72
2021/12/08 03:36:10;;;;;;;3.63;1.40;;;;;;;9.77;51.41;99132.69;5053056;28;20049;-74
2021/12/08 03:38:39;;;;;;;3.97;1.33;;;;;;;9.78;51.13;99139.81;5032761;28;20063;-72
2021/12/08 03:41:07;;;;;;;3.55;1.30;;;;;;;9.79;51.45;99136.97;5045854;28;20128;-74
2021/12/08 03:43:34;;;;;;;2.50;1.50;;;;;;;9.78;51.47;99148.81;5056358;28;20087;-72
2021/12/08 03:46:01;;;;;;;2.50;1.30;;;;;;;9.80;51.23;99160.34;5037015;28;20395;-71
2021/12/08 03:48:43;;;;;;;1.70;1.10;;;;;;;9.84;51.21;99152.81;5046016;28;20469;-72
2021/12/08 03:51:10;;;;;;;3.50;1.35;;;;;;;9.82;51.59;99146.66;5047193;28;20128;-71
2021/12/08 03:53:37;;;;;;;3.17;1.40;;;;;;;9.84;51.52;99153.66;5056286;28;20055;-72
2021/12/08 03:56:05;;;;;;;3.17;1.45;;;;;;;9.85;51.38;99152.66;5038553;28;20069;-73
2021/12/08 03:58:32;;;;;;;3.05;1.50;;;;;;;9.86;51.39;99153.53;5058412;28;20040;-74
2021/12/08 04:00:59;;;;;;;2.38;1.40;;;;;;;9.88;51.36;99163.22;5052820;28;20131;-72
2021/12/08 04:03:30;;;;;;;2.42;1.27;;;;;;;9.89;51.37;99173.06;5059094;28;20090;-72
2021/12/08 04:06:02;;;;;;;3.70;1.60;;;;;;;9.89;51.53;99170.34;5051592;28;20115;-72
2021/12/08 04:08:39;;;;;;;2.90;1.67;;;;;;;9.90;51.44;99169.38;5054191;28;20073;-74
2021/12/08 04:11:06;;;;;;;4.85;1.90;;;;;;;9.91;51.39;99165.66;5046883;28;20132;-72
2021/12/08 04:13:46;;;;;;;3.20;1.60;;;;;;;9.93;51.54;99155.53;5050408;28;20734;-73
2021/12/08 04:16:16;;;;;;;2.60;1.40;;;;;;;9.93;51.55;99152.84;5051571;28;20148;-72
2021/12/08 04:18:43;;;;;;;2.80;1.40;;;;;;;9.93;51.47;99146.56;5055383;28;20076;-72
2021/12/08 04:21:10;;;;;;;3.25;1.50;;;;;;;9.93;51.39;99147.41;5059549;28;20131;-73
2021/12/08 04:23:39;;;;;;;2.40;1.23;;;;;;;9.93;51.42;99150.13;5055672;28;20064;-72
2021/12/08 04:26:12;;;;;;;2.80;1.40;;;;;;;9.95;51.53;99155.41;5050965;28;20681;-72
2021/12/08 04:28:39;;;;;;;2.58;1.38;;;;;;;9.91;51.44;99152.09;5036478;28;20076;-72
2021/12/08 04:31:12;;;;;;;2.10;1.30;;;;;;;9.94;51.64;99150.97;5029778;28;20057;-72
2021/12/08 04:33:39;;;;;;;2.72;1.35;;;;;;;9.91;51.54;99154.81;5052596;28;20049;-72
2021/12/08 04:36:09;;;;;;;2.63;1.25;;;;;;;9.93;51.45;99149.25;5047268;28;20569;-72
2021/12/08 04:38:41;;;;;;;2.20;1.40;;;;;;;9.93;51.49;99146.56;5053080;28;20041;-75
2021/12/08 04:41:12;;;;;;;4.35;1.75;;;;;;;9.91;51.58;99141.25;5033125;28;20036;-72
2021/12/08 04:43:56;;;;;;;2.83;1.42;;;;;;;9.92;51.51;99152.97;5043661;28;20119;-72
2021/12/08 04:51:41;;;;;;;2.70;1.67;;;;;;;9.87;51.66;99156.09;5049304;28;20125;-72
2021/12/08 05:02:40;;;;;;;3.47;1.67;;;;;;;9.85;51.94;99168.94;5063833;28;20076;-72
2021/12/08 05:05:38;;;;;;;3.28;1.98;;;;;;;9.87;51.86;99176.94;5059173;28;20132;-72
2021/12/08 05:08:22;;;;;;;2.75;1.50;;;;;;;9.87;52.06;99188.63;5032256;28;20129;-73
2021/12/08 05:10:52;;;;;;;2.88;1.70;;;;;;;9.90;51.82;99192.91;5052757;28;20578;-72
2021/12/08 05:13:19;;;;;;;3.72;1.70;;;;;;;9.91;51.88;99186.47;5059222;28;20049;-74
2021/12/08 05:15:56;;;;;;;5.15;1.70;;;;;;;9.95;52.18;99195.22;5050170;28;20052;-72
2021/12/08 05:18:27;;;;;;;4.90;1.63;;;;;;;9.95;51.83;99197.91;5059436;28;20135;-72
2021/12/08 05:21:04;;;;;;;3.13;1.50;;;;;;;9.95;52.05;99196.06;5033632;28;20147;-72
2021/12/08 05:23:40;;;;;;;2.78;1.33;;;;;;;9.98;51.95;99195.78;5058154;28;20095;-73
2021/12/08 05:26:23;;;;;;;2.78;1.40;;;;;;;10.00;52.36;99201.06;5043412;28;20124;-73
2021/12/08 05:28:54;;;;;;;3.67;1.33;;;;;;;9.98;52.08;99205.75;5051922;28;20065;-72
2021/12/08 05:31:27;;;;;;;2.70;1.50;;;;;;;10.01;52.13;99217.19;5041926;28;20783;-73
2021/12/08 05:33:55;;;;;;;3.00;1.30;;;;;;;10.01;52.15;99209.06;5037907;28;20095;-73
2021/12/08 05:36:23;;;;;;;2.90;1.25;;;;;;;10.03;52.12;99203.50;5044483;28;20041;-71
2021/12/08 05:38:52;;;;;;;2.58;1.40;;;;;;;10.05;52.17;99204.19;5046670;28;20071;-72
2021/12/08 05:41:31;;;;;;;2.78;1.63;;;;;;;10.08;52.22;99206.66;5032507;28;20561;-72
2021/12/08 05:44:00;;;;;;;3.42;1.33;;;;;;;10.07;52.27;99199.50;5048960;28;20103;-73
2021/12/08 05:46:30;;;;;;;4.28;1.50;;;;;;;10.08;51.97;99204.78;5053751;28;20071;-74
2021/12/08 05:48:58;;;;;;;3.42;1.50;;;;;;;10.08;52.01;99214.78;5057266;28;20524;-72
2021/12/08 05:51:28;;;;;;;2.88;1.40;;;;;;;10.09;52.40;99211.94;5060169;28;20083;-74
2021/12/08 05:53:58;;;;;;;2.92;1.40;;;;;;;10.10;52.14;99215.50;5051817;28;20036;-72
2021/12/08 05:56:26;;;;;;;4.63;1.50;;;;;;;10.10;52.16;99213.66;5057171;28;20461;-73
2021/12/08 05:58:55;;;;;;;3.67;1.83;;;;;;;10.11;52.19;99212.66;5044425;28;20044;-72
2021/12/08 06:01:26;;;;;;;3.50;1.70;;;;;;;10.13;52.08;99221.50;5042704;28;20081;-75
2021/12/08 06:03:54;;;;;;;3.85;1.67;;;;;;;10.11;52.11;99214.50;5034293;28;20123;-73
2021/12/08 06:06:22;;;;;;;2.97;1.52;;;;;;;10.13;52.09;99215.25;5047530;28;20091;-71
2021/12/08 06:08:51;;;;;;;3.10;1.70;;;;;;;10.13;52.16;99218.78;5034034;28;20120;-72
2021/12/08 06:11:22;;;;;;;3.95;1.60;;;;;;;10.13;52.10;99221.50;5051622;28;20075;-71
2021/12/08 06:13:49;;;;;;;4.95;2.20;;;;;;;10.15;52.02;99216.78;5046566;28;20068;-71
2021/12/08 06:16:21;;;;;;;3.47;1.98;;;;;;;10.15;51.99;99214.06;5043780;28;20514;-71
2021/12/08 06:18:51;;;;;;;3.28;1.77;;;;;;;10.15;52.01;99227.63;5055019;28;20044;-72
2021/12/08 06:21:21;;;;;;;3.63;1.95;;;;;;;10.17;52.19;99230.22;5059746;28;20052;-72
2021/12/08 06:23:48;;;;;;;4.03;1.73;;;;;;;10.15;52.12;99224.06;5058152;28;20176;-71
2021/12/08 06:26:18;;;;;;;3.50;1.90;;;;;;;10.17;51.97;99230.22;5047626;28;20045;-71
2021/12/08 06:28:45;;;;;;;4.03;1.90;;;;;;;10.15;52.05;99229.50;5039486;28;20433;-71
2021/12/08 06:31:14;;;;;;;4.40;1.88;;;;;;;10.16;52.14;99237.50;5052367;28;20098;-71
2021/12/08 06:33:41;;;;;;;3.22;1.63;;;;;;;10.15;51.71;99241.19;5051509;28;20053;-72
2021/12/08 06:36:16;;;;;;;4.10;1.88;;;;;;;10.17;51.94;99235.63;5042390;28;20072;-70
2021/12/08 06:38:44;;;;;;;3.95;1.80;;;;;;;10.15;51.77;99241.19;5031460;28;20426;-70
2021/12/08 06:41:18;;;;;;;4.35;1.88;;;;;;;10.18;52.04;99245.53;5055297;28;20581;-72
2021/12/08 06:43:49;;;;;;;4.78;2.00;;;;;;;10.17;52.31;99238.34;5060620;28;20079;-72
2021/12/08 06:46:16;;;;;;;3.03;1.52;;;;;;;10.15;52.20;99241.19;5044933;28;20048;-70
2021/12/08 06:48:52;;;;;;;3.85;1.60;;;;;;;10.16;52.17;99242.06;5063543;28;20045;-72
2021/12/08 06:51:24;;;;;;;3.08;1.50;;;;;;;10.16;52.27;99236.63;5048842;28;20534;-72
2021/12/08 06:53:55;;;;;;;5.13;2.22;;;;;;;10.16;52.59;99256.47;5043835;28;20966;-70
2021/12/08 06:56:28;;;;;;;4.38;2.50;;;;;;;10.16;52.27;99256.47;5057775;28;20045;-71
2021/12/08 06:58:59;;;;;;;3.35;1.90;;;;;;;10.16;52.19;99261.91;5055204;28;20508;-70
2021/12/08 07:06:46;;;;;;;2.80;1.77;;;;;;;10.19;52.22;99268.94;5066550;28;20492;-70
2021/12/08 07:09:20;;;;;;;2.65;1.40;;;;;;;10.19;52.20;99279.78;5060123;28;20064;-70
2021/12/08 07:11:50;;;;;;;2.60;1.60;;;;;;;10.20;52.20;99286.94;5054830;28;20107;-70
2021/12/08 07:14:18;;;;;;;3.22;1.40;;;;;;;10.21;52.08;99280.53;5041854;28;20052;-70
2021/12/08 07:16:50;;;;;;;4.30;1.60;;;;;;;10.21;52.32;99275.91;5033700;28;20084;-71
2021/12/08 07:19:32;;;;;;;3.30;1.60;;;;;;;10.20;52.11;99279.66;5057717;28;20132;-71
2021/12/08 07:22:04;;;;;;;5.20;1.77;;;;;;;10.21;51.94;99289.47;5064933;28;20032;-70
2021/12/08 07:24:36;;;;;;;3.25;1.50;;;;;;;10.22;52.08;99287.63;5056333;28;20045;-71
2021/12/08 07:27:07;;;;;;;5.40;1.50;;;;;;;10.21;52.41;99277.81;5052158;28;20041;-71
2021/12/08 07:29:39;;;;;;;4.28;1.50;;;;;;;10.23;51.80;99281.22;5060706;28;20318;-70
2021/12/08 07:32:13;;;;;;;3.83;1.60;;;;;;;10.24;52.17;99283.78;5048898;28;20083;-71
2021/12/08 07:34:41;;;;;;;4.32;1.50;;;;;;;10.22;52.18;99287.63;5039926;28;20095;-71
2021/12/08 07:37:13;;;;;;;3.80;1.63;;;;;;;10.24;51.98;99291.06;5051626;28;20075;-71
2021/12/08 07:39:49;;;;;;;3.88;1.60;;;;;;;10.24;51.95;99281.09;5054591;28;20111;-72
2021/12/08 07:42:24;;;;;;;4.63;1.60;;;;;;;10.25;51.75;99277.38;5046221;28;20092;-71
2021/12/08 07:44:54;;;;;;;3.60;1.52;;;;;;;10.24;52.13;99281.09;5048103;28;20076;-71
2021/12/08 07:47:23;;;;;;;4.65;1.90;;;;;;;10.25;51.92;99282.81;5038108;28;20168;-70
2021/12/08 07:49:55;;;;;;;7.50;3.17;;;;;;;10.26;51.77;99287.22;5023941;28;20676;-72
2021/12/08 07:52:28;;;;;;;11.30;3.80;;;;;;;10.26;51.47;99299.94;5046937;28;20489;-71
2021/12/08 07:54:55;;;;;;;7.10;2.97;;;;;;;10.25;51.80;99303.63;5060185;28;20091;-71
2021/12/08 07:57:33;;;;;;;5.30;2.58;;;;;;;10.27;51.55;99302.50;5029915;28;20049;-71
2021/12/08 08:00:08;;;;;;;6.53;2.70;;;;;;;10.27;51.73;99305.22;5047718;28;20065;-72
2021/12/08 08:02:35;;;;;;;7.13;2.60;;;;;;;10.27;51.68;99305.22;5054326;28;20459;-71
2021/12/08 08:05:05;;;;;;;5.55;2.60;;;;;;;10.28;51.68;99315.09;5046863;28;20071;-71
2021/12/08 08:07:32;;;;;;;4.97;2.38;;;;;;;10.27;51.84;99318.78;5058027;28;20044;-72
2021/12/08 08:10:01;;;;;;;4.80;2.50;;;;;;;10.27;51.61;99310.66;5049922;28;20044;-71
2021/12/08 08:12:32;;;;;;;5.32;2.60;;;;;;;10.29;51.59;99311.34;5056226;28;20782;-71
2021/12/08 08:15:25;;;;;;;4.72;2.60;;;;;;;10.29;51.62;99305.09;5066872;28;20055;-71
2021/12/08 08:17:54;;;;;;;;;;;;;;;10.05;52.10;99302.66;5042363;28;20657;-74
2021/12/08 08:20:28;;;;;;;4.78;2.45;;;;;;;10.25;52.01;99309.94;5028816;28;20619;-72
2021/12/08 08:22:57;;;;;;;4.22;1.70;;;;;;;10.26;51.54;99308.06;5055861;28;20048;-72
2021/12/08 08:25:27;;;;;;;6.20;1.95;;;;;;;10.27;51.71;99315.22;5044587;28;20131;-73
2021/12/08 08:27:54;;;;;;;4.30;2.20;;;;;;;10.26;51.65;99310.78;5045877;28;20119;-72
2021/12/08 08:30:26;;;;;;;3.55;1.88;;;;;;;10.26;51.59;99330.63;5054407;28;20415;-72
2021/12/08 08:32:57;;;;;;;4.95;2.20;;;;;;;10.26;51.81;99325.22;5042883;28;20076;-71
2021/12/08 08:35:36;;;;;;;4.57;2.05;;;;;;;10.28;51.75;99330.50;5039614;28;20132;-67
2021/12/08 08:38:07;;;;;;;5.00;2.00;;;;;;;10.27;51.75;99329.63;5042885;28;20052;-67
2021/12/08 08:40:46;;;;;;;5.05;1.67;;;;;;;10.28;51.67;99323.22;5041312;28;20073;-67
2021/12/08 08:43:13;;;;;;;5.47;1.83;;;;;;;10.27;51.69;99337.78;5044475;28;20073;-68
2021/12/08 08:45:53;;;;;;;4.63;1.70;;;;;;;10.30;51.44;99340.19;5043503;28;20070;-67
2021/12/08 08:48:28;;;;;;;4.47;1.63;;;;;;;10.29;51.88;99338.47;5047217;28;20485;-67
2021/12/08 08:51:30;;;;;;;3.05;1.63;;;;;;;10.32;51.87;99331.06;5026907;28;20069;-68
2021/12/08 08:54:06;;;;;;;3.78;1.52;;;;;;;10.30;51.78;99329.34;5040509;28;20124;-67
2021/12/08 08:56:40;;;;;;;3.13;1.50;;;;;;;10.31;51.56;99341.06;5033329;28;20072;-68
2021/12/08 08:59:12;;;;;;;3.25;1.70;;;;;;;10.32;51.73;99334.63;5025422;28;20100;-67
2021/12/08 09:01:45;;;;;;;4.78;1.50;;;;;;;10.34;51.87;99335.38;5051584;28;20071;-68
2021/12/08 09:04:22;;;;;;;3.38;1.70;;;;;;;10.37;51.66;99335.09;5038519;28;20041;-67
2021/12/08 09:06:53;;;;;;;3.80;1.75;;;;;;;10.38;51.21;99347.63;5037207;28;20067;-67
2021/12/08 09:09:26;;;;;;;2.60;1.45;;;;;;;10.39;51.76;99343.06;5036436;28;20482;-67
2021/12/08 09:12:11;;;;;;;3.90;1.70;;;;;;;10.41;51.45;99335.66;5047388;28;20135;-67
2021/12/08 09:15:04;;;;;;;4.07;1.63;;;;;;;10.40;51.46;99331.22;5032428;28;20065;-67
2021/12/08 09:17:34;;;;;;;;;;;;;;;10.17;52.19;99323.31;5046068;28;20084;-67
2021/12/08 09:20:04;;;;;;;2.42;1.48;;;;;;;10.39;51.89;99337.66;5044296;28;19924;-67
2021/12/08 09:22:40;;;;;;;3.90;1.58;;;;;;;10.43;51.65;99352.66;5032518;28;20746;-66
2021/12/08 09:25:20;;;;;;;4.35;2.05;;;;;;;10.46;51.47;99361.38;5042519;28;20498;-67
2021/12/08 09:27:51;;;;;;;3.50;1.70;;;;;;;10.46;51.62;99363.25;5044349;28;20064;-67
2021/12/08 09:30:33;;;;;;;4.18;1.90;;;;;;;10.47;51.42;99363.09;5045348;28;20085;-68
2021/12/08 09:33:09;;;;;;;5.97;1.85;;;;;;;10.48;51.52;99372.09;5026158;28;20040;-67
2021/12/08 09:35:57;;;;;;;4.97;2.35;;;;;;;10.49;51.35;99368.38;5046189;28;20573;-68
2021/12/08 09:38:31;;;;;;;5.55;2.22;;;;;;;10.49;51.45;99371.97;5042688;28;20041;-67
2021/12/08 09:41:03;;;;;;;4.65;2.05;;;;;;;10.50;51.51;99370.97;5041025;28;20045;-67
2021/12/08 09:43:36;;;;;;;4.30;2.00;;;;;;;10.53;51.43;99369.84;5043761;28;20048;-67
2021/12/08 09:46:15;;;;;;;4.47;1.63;;;;;;;10.54;51.33;99375.09;5041163;28;20067;-66
2021/12/08 09:48:44;;;;;;;4.35;1.58;;;;;;;10.54;51.57;99382.41;5041346;28;20055;-68
2021/12/08 09:51:12;;;;;;;4.40;1.75;;;;;;;10.56;51.44;99383.97;5037297;28;20088;-67
2021/12/08 09:53:43;;;;;;;4.95;1.70;;;;;;;10.59;51.58;99383.72;5042862;28;20041;-68
2021/12/08 09:56:09;;;;;;;6.50;1.80;;;;;;;10.58;51.55;99382.00;5042858;28;20048;-68
2021/12/08 09:58:38;;;;;;;6.00;1.90;;;;;;;10.60;51.37;99381.84;5012592;28;20048;-67
2021/12/08 10:01:09;;;;;;;5.07;1.60;;;;;;;10.62;51.43;99382.59;5039202;28;20043;-67
2021/12/08 10:03:38;;;;;;;5.55;1.60;;;;;;;10.62;51.37;99386.13;5037889;28;20087;-67
2021/12/08 10:06:08;;;;;;;5.05;1.70;;;;;;;10.63;51.19;99381.56;5044541;28;20041;-67
2021/12/08 10:08:35;;;;;;;3.55;1.77;;;;;;;10.63;51.32;99385.13;5047878;28;20045;-67
2021/12/08 10:11:02;;;;;;;5.45;2.00;;;;;;;10.64;51.25;99388.72;5042978;28;20088;-68
2021/12/08 10:13:29;;;;;;;3.75;1.77;;;;;;;10.65;51.67;99388.56;5048670;28;20075;-68
2021/12/08 10:15:55;;;;;;;5.35;2.10;;;;;;;10.65;51.38;99393.16;5046524;28;20079;-70
2021/12/08 10:18:22;;;;;;;4.40;1.90;;;;;;;10.67;51.32;99388.44;5038921;28;20044;-68
2021/12/08 10:20:52;;;;;;;3.70;1.80;;;;;;;10.70;51.44;99396.31;5035103;28;20033;-68
2021/12/08 10:23:28;;;;;;;5.03;1.70;;;;;;;10.73;51.21;99396.03;5051058;28;20135;-69
2021/12/08 10:25:57;;;;;;;5.10;1.73;;;;;;;10.73;51.57;99397.88;5046982;28;20103;-68
2021/12/08 10:28:42;;;;;;;5.43;1.80;;;;;;;10.78;51.24;99395.63;5047141;28;20049;-68
2021/12/08 10:31:30;;;;;;;7.30;1.75;;;;;;;10.79;51.33;99405.50;5046137;28;20043;-68
2021/12/08 10:34:21;;;;;;;7.63;2.08;;;;;;;10.80;51.24;99407.19;5045849;28;20071;-68
2021/12/08 10:36:57;;;;;;;5.07;2.10;;;;;;;10.83;51.25;99415.06;5045397;28;20507;-68
2021/12/08 10:39:37;;;;;;;4.13;1.70;;;;;;;10.84;51.17;99406.78;5045984;28;20045;-68
2021/12/08 10:42:04;;;;;;;3.08;1.55;;;;;;;10.85;51.62;99410.34;5049401;28;20984;-68
2021/12/08 10:44:48;;;;;;;5.95;1.80;;;;;;;10.86;50.78;99404.78;5058279;28;20057;-69
2021/12/08 10:47:27;;;;;;;4.57;1.42;;;;;;;10.89;50.96;99399.06;5051784;28;20060;-68
2021/12/08 10:55:18;;;;;;;5.68;2.28;;;;;;;10.90;50.82;99395.34;5046991;28;20064;-68
2021/12/08 10:57:50;;;;;;;3.63;1.50;;;;;;;10.91;50.33;99383.50;5046577;28;20083;-68
2021/12/08 11:00:21;;;;;;;4.03;1.40;;;;;;;10.93;50.76;99377.94;5046896;28;20044;-68
2021/12/08 11:02:50;;;;;;;5.95;1.80;;;;;;;10.91;50.85;99378.06;5045897;28;20467;-68
2021/12/08 11:05:26;;;;;;;4.50;1.42;;;;;;;10.95;50.37;99375.94;5033565;28;20493;-68
2021/12/08 11:07:57;;;;;;;3.80;1.30;;;;;;;10.95;50.71;99386.78;5027982;28;20606;-68
2021/12/08 11:10:23;;;;;;;3.90;1.50;;;;;;;10.94;50.98;99387.78;5060030;28;20997;-67
2021/12/08 11:12:50;;;;;;;4.03;1.77;;;;;;;10.96;50.50;99386.63;5046970;28;20132;-68
2021/12/08 11:15:22;;;;;;;5.10;1.40;;;;;;;10.98;50.13;99392.78;5037993;28;20049;-68
2021/12/08 11:18:14;;;;;;;3.15;1.25;;;;;;;10.98;49.96;99395.50;5052418;28;20088;-68
2021/12/08 11:20:42;;;;;;;5.00;1.35;;;;;;;10.99;50.78;99394.50;5039113;28;20072;-69
2021/12/08 11:23:11;;;;;;;3.17;1.10;;;;;;;11.00;50.32;99396.22;5039062;28;20498;-69
2021/12/08 11:25:44;;;;;;;2.90;1.20;;;;;;;11.03;50.09;99404.09;5044478;28;20033;-69
2021/12/08 11:28:18;;;;;;;3.40;1.10;;;;;;;11.05;49.65;99407.50;5051832;28;20059;-68
2021/12/08 11:30:45;;;;;;;3.60;1.23;;;;;;;11.05;50.45;99406.66;5048437;28;20454;-69
2021/12/08 11:33:18;;;;;;;6.15;1.48;;;;;;;11.08;50.52;99419.97;5048814;28;20048;-68
2021/12/08 11:35:46;;;;;;;2.88;1.10;;;;;;;11.08;50.40;99422.69;5045848;28;20037;-69
2021/12/08 11:38:14;;;;;;;4.15;1.33;;;;;;;11.11;50.42;99416.13;5041849;28;20052;-68
2021/12/08 11:40:40;;;;;;;3.47;1.55;;;;;;;11.12;50.29;99418.66;5045524;28;20087;-68
2021/12/08 11:43:14;;;;;;;4.22;1.20;;;;;;;11.17;49.91;99415.53;5039396;28;20049;-69
2021/12/08 11:45:42;;;;;;;3.15;1.17;;;;;;;11.17;49.94;99412.81;5052335;28;20079;-68
2021/12/08 11:48:24;;;;;;;3.72;1.10;;;;;;;11.20;49.55;99407.94;5026595;28;20455;-68
2021/12/08 11:51:07;;;;;;;4.53;1.60;;;;;;;11.22;49.75;99410.53;5048047;28;20048;-69
2021/12/08 11:53:37;;;;;;;5.50;1.40;;;;;;;11.23;49.76;99398.66;5045574;28;20073;-68
2021/12/08 11:56:06;;;;;;;3.20;1.52;;;;;;;11.25;49.90;99393.97;5044585;28;20498;-68
2021/12/08 11:58:33;;;;;;;2.33;1.20;;;;;;;11.27;49.57;99390.09;5045124;28;20068;-68
2021/12/08 12:01:02;;;;;;;4.15;1.40;;;;;;;11.27;49.78;99381.09;5051495;28;20073;-69
2021/12/08 12:03:29;;;;;;;3.65;1.13;;;;;;;11.28;49.98;99369.25;5054613;28;20098;-69
2021/12/08 12:05:56;;;;;;;3.35;1.30;;;;;;;11.28;49.49;99380.94;5054894;28;20501;-69
2021/12/08 12:08:23;;;;;;;3.33;1.00;;;;;;;11.29;49.25;99379.94;5048537;28;20045;-68
2021/12/08 12:10:53;;;;;;;3.60;1.25;;;;;;;11.31;49.33;99375.22;5050101;28;20095;-68
2021/12/08 12:13:20;;;;;;;3.50;1.48;;;;;;;11.32;49.12;99378.81;5050258;28;20072;-68
2021/12/08 12:15:48;;;;;;;4.63;1.17;;;;;;;11.33;49.19;99372.38;5045670;28;20626;-69
2021/12/08 12:18:22;;;;;;;3.22;1.20;;;;;;;11.34;48.50;99384.97;5043630;28;20091;-69
2021/12/08 12:20:56;;;;;;;4.28;1.15;;;;;;;11.36;48.51;99388.41;5041882;28;20410;-67
2021/12/08 12:23:35;;;;;;;2.90;1.13;;;;;;;11.34;48.11;99391.25;5027586;28;20678;-69
2021/12/08 12:26:23;;;;;;;2.33;1.10;;;;;;;11.35;48.11;99395.69;5047440;28;20140;-69
2021/12/08 12:29:36;;;;;;;2.88;1.17;;;;;;;11.34;47.99;99406.69;5048378;28;20102;-68
2021/12/08 12:32:10;;;;;;;2.80;0.93;;;;;;;11.33;48.36;99411.25;5044626;28;20056;-68
2021/12/08 12:34:39;;;;;;;3.17;1.00;;;;;;;11.34;48.84;99415.72;5025380;28;20587;-68
2021/12/08 12:37:28;;;;;;;3.15;1.40;;;;;;;11.38;47.82;99428.00;5046710;28;20123;-68
2021/12/08 12:39:57;;;;;;;3.42;1.00;;;;;;;11.36;48.39;99416.44;5045016;28;20111;-68
2021/12/08 12:42:25;;;;;;;2.58;1.15;;;;;;;11.35;48.63;99425.56;5046646;28;20145;-69